Tuneiras do Oeste, Brazil
Current Conditions -  °F | °C
As of 2:00 PM on Friday 24 Oct 2014 (Local Time) from SBMG Reporting Station
Scattered Clouds Scattered Clouds  
Wind Chill: 84°   Ceiling: Unl
Heat Index: 86°   Visibility: 6mi
Dew Point: 66°   Wind: 10mph
Humidity: 55%   Direction: 350°N
Pressure: 29.97"   Gusts: NA
Location:  23.87°S, 52.88°W
Report Text: SBMG 241600Z 35009KT 9999 SCT040 29/19 Q1015
Loading
Personal Weather Stations






























Interactive Weather Map
Tropical Storm Tracking
New forecast layout! Learn more

10-Day Weather Forecast

Advertisements
Track Severe Weather on mobile